Time;durP1;ratioP1;P1;durP2;ratioP2;P2;SDS_P1;SDS_P2;PMS_P1;PMS_P2;Temp;Humidity;BMP_temperature;BMP_pressure;BME280_temperature;BME280_humidity;BME280_pressure;Samples;Min_cycle;Max_cycle;Signal;HPM_P1;HPM_P2
2021/08/27 00:02:00;;;;;;;4.63;1.80;;;;;;;12.87;100.00;100187.06;5034808;28;20045;-82
2021/08/27 00:04:33;;;;;;;5.13;1.73;;;;;;;12.82;100.00;100184.75;5016226;28;20156;-81
2021/08/27 00:07:00;;;;;;;4.13;1.92;;;;;;;12.97;100.00;100185.41;5030799;28;20467;-83
2021/08/27 00:09:27;;;;;;;5.32;2.05;;;;;;;12.98;100.00;100187.09;5032799;28;20077;-82
2021/08/27 00:11:56;;;;;;;2.90;1.80;;;;;;;12.92;100.00;100185.78;4998555;28;20103;-82
2021/08/27 00:14:23;;;;;;;2.92;2.15;;;;;;;12.70;100.00;100184.81;4995476;28;20075;-82
2021/08/27 00:16:50;;;;;;;6.22;2.28;;;;;;;12.77;100.00;100181.63;5013425;28;20041;-84
2021/08/27 00:19:17;;;;;;;3.88;1.85;;;;;;;12.80;100.00;100177.94;5010896;28;20546;-84
2021/08/27 00:21:46;;;;;;;3.80;2.38;;;;;;;12.72;100.00;100185.56;5013339;28;20132;-83
2021/08/27 00:24:13;;;;;;;3.42;2.10;;;;;;;12.74;100.00;100175.72;5022387;28;20064;-83
2021/08/27 00:26:41;;;;;;;7.00;3.05;;;;;;;12.72;100.00;100175.00;5022645;28;20050;-81
2021/08/27 00:29:09;;;;;;;3.05;2.20;;;;;;;12.68;100.00;100169.09;5012539;28;20107;-82
2021/08/27 00:31:36;;;;;;;2.42;1.63;;;;;;;12.67;100.00;100168.28;5013579;28;20446;-81
2021/08/27 00:34:03;;;;;;;3.60;1.92;;;;;;;12.62;100.00;100170.41;5047476;28;20059;-82
2021/08/27 00:36:36;;;;;;;4.93;2.47;;;;;;;12.66;100.00;100174.50;5012846;28;20042;-82
2021/08/27 00:39:03;;;;;;;3.55;1.90;;;;;;;12.63;100.00;100169.44;5028376;28;20072;-83
2021/08/27 00:41:30;;;;;;;4.25;2.30;;;;;;;12.61;100.00;100168.75;5028374;28;20087;-81
2021/08/27 00:43:57;;;;;;;3.42;2.10;;;;;;;12.61;100.00;100165.25;5028544;28;20080;-82
2021/08/27 00:46:25;;;;;;;7.50;2.42;;;;;;;12.62;100.00;100165.13;5015230;28;20151;-82
2021/08/27 00:48:52;;;;;;;2.92;2.05;;;;;;;12.64;100.00;100163.22;5049123;28;20069;-82
2021/08/27 00:51:19;;;;;;;7.57;2.65;;;;;;;12.57;100.00;100156.72;5016238;28;20131;-81
2021/08/27 00:53:48;;;;;;;5.18;3.42;;;;;;;12.63;100.00;100166.81;5050870;28;20152;-81
2021/08/27 00:56:15;;;;;;;4.60;2.38;;;;;;;12.47;100.00;100165.41;5017072;28;20049;-81
2021/08/27 00:58:43;;;;;;;4.50;2.40;;;;;;;12.44;100.00;100155.09;5030736;28;20072;-82
2021/08/27 01:01:10;;;;;;;4.63;2.83;;;;;;;12.54;100.00;100156.09;5049680;28;20087;-82
2021/08/27 01:03:37;;;;;;;5.05;2.30;;;;;;;12.58;100.00;100157.56;5031182;28;20112;-80
2021/08/27 01:06:14;;;;;;;4.18;2.40;;;;;;;12.48;100.00;100162.69;5044373;28;20186;-81
2021/08/27 01:09:26;;;;;;;3.50;2.55;;;;;;;12.57;100.00;100161.16;5035083;28;20076;-80
2021/08/27 01:12:06;;;;;;;3.92;2.78;;;;;;;12.42;100.00;100158.69;5034879;28;20091;-81
2021/08/27 01:14:39;;;;;;;5.57;2.60;;;;;;;12.49;100.00;100156.44;5046509;28;20480;-81
2021/08/27 01:17:12;;;;;;;4.40;2.20;;;;;;;12.51;100.00;100159.78;5036585;28;20423;-81
2021/08/27 01:20:06;;;;;;;5.68;2.47;;;;;;;12.44;100.00;100165.66;5018019;28;20065;-81
2021/08/27 01:23:05;;;;;;;7.13;3.10;;;;;;;12.47;100.00;100162.78;5040367;28;20040;-80
2021/08/27 01:25:35;;;;;;;7.55;2.05;;;;;;;12.55;100.00;100157.78;5035588;28;20068;-82
2021/08/27 01:28:04;;;;;;;4.20;2.20;;;;;;;12.61;100.00;100158.19;5025938;28;20156;-81
2021/08/27 01:30:59;;;;;;;5.80;3.00;;;;;;;12.59;100.00;100164.50;4999099;28;20143;-82
2021/08/27 01:33:27;;;;;;;3.72;2.33;;;;;;;12.58;100.00;100163.69;5028911;28;20087;-81
2021/08/27 01:35:57;;;;;;;5.03;2.38;;;;;;;12.62;100.00;100167.78;5031383;28;20056;-80
2021/08/27 01:38:34;;;;;;;5.18;2.22;;;;;;;12.62;100.00;100162.50;5013514;28;20052;-82
2021/08/27 01:41:05;;;;;;;3.95;2.72;;;;;;;12.69;100.00;100170.78;5023908;28;20055;-83
2021/08/27 01:43:32;;;;;;;3.75;2.03;;;;;;;12.63;100.00;100169.44;5030485;28;20050;-81
2021/08/27 01:46:01;;;;;;;4.22;2.03;;;;;;;12.66;100.00;100165.75;4997020;28;20568;-81
2021/08/27 01:48:32;;;;;;;3.65;2.55;;;;;;;12.75;100.00;100165.06;5035405;28;20339;-80
2021/08/27 01:50:59;;;;;;;7.93;2.70;;;;;;;12.70;100.00;100164.56;5013115;28;20298;-81
2021/08/27 01:53:28;;;;;;;6.32;1.98;;;;;;;12.72;100.00;100164.44;5046533;28;20045;-82
2021/08/27 01:56:00;;;;;;;6.10;2.53;;;;;;;12.62;100.00;100172.22;5042869;28;20080;-84
2021/08/27 01:58:32;;;;;;;6.47;2.08;;;;;;;12.60;100.00;100164.38;5044544;28;20599;-82
2021/08/27 02:01:00;;;;;;;3.03;1.98;;;;;;;12.68;100.00;100164.66;5035083;28;20388;-82
2021/08/27 02:03:29;;;;;;;3.33;2.10;;;;;;;12.64;100.00;100165.84;5024481;28;20053;-80
2021/08/27 02:05:58;;;;;;;5.80;2.63;;;;;;;12.62;100.00;100162.50;5014433;28;20127;-82
2021/08/27 02:08:26;;;;;;;2.55;2.03;;;;;;;12.58;100.00;100155.75;5047039;28;20144;-81
2021/08/27 02:10:53;;;;;;;5.93;1.80;;;;;;;12.56;100.00;100160.31;5028264;28;20227;-82
2021/08/27 02:13:21;;;;;;;2.78;1.75;;;;;;;12.58;100.00;100153.13;4997979;28;20205;-80
2021/08/27 02:15:49;;;;;;;2.58;1.90;;;;;;;12.66;100.00;100157.84;5034121;28;20067;-81
2021/08/27 02:18:16;;;;;;;2.80;1.63;;;;;;;12.64;100.00;100157.94;5027043;28;20068;-82
2021/08/27 02:20:44;;;;;;;3.42;2.35;;;;;;;12.64;100.00;100147.38;5024350;28;20452;-82
2021/08/27 02:23:12;;;;;;;2.55;1.90;;;;;;;12.63;100.00;100148.31;5013227;28;20056;-83
2021/08/27 02:25:42;;;;;;;5.88;2.40;;;;;;;12.66;100.00;100147.28;4993886;28;20082;-81
2021/08/27 02:28:10;;;;;;;4.38;2.20;;;;;;;12.65;100.00;100148.19;5021277;28;20053;-81
2021/08/27 02:30:38;;;;;;;2.90;2.17;;;;;;;12.69;100.00;100149.66;5027625;28;20053;-84
2021/08/27 02:33:09;;;;;;;7.03;2.00;;;;;;;12.72;100.00;100149.44;5028678;28;20049;-82
2021/08/27 02:35:36;;;;;;;4.65;2.70;;;;;;;12.72;100.00;100145.97;4993999;28;20049;-82
2021/08/27 02:38:04;;;;;;;6.82;2.15;;;;;;;12.81;100.00;100147.91;5028936;28;20045;-83
2021/08/27 02:40:32;;;;;;;3.78;2.13;;;;;;;12.89;100.00;100142.88;5010680;28;20040;-82
2021/08/27 02:42:59;;;;;;;5.50;2.53;;;;;;;12.79;100.00;100144.53;5030153;28;20087;-81
2021/08/27 02:45:26;;;;;;;3.40;2.05;;;;;;;12.77;100.00;100144.66;5029635;28;20057;-82
2021/08/27 02:47:53;;;;;;;4.13;2.65;;;;;;;12.88;100.00;100141.22;5045007;28;20476;-81
2021/08/27 02:50:20;;;;;;;5.63;2.47;;;;;;;12.81;100.00;100140.81;5027956;28;20499;-81
2021/08/27 02:52:53;;;;;;;9.02;3.75;;;;;;;12.73;100.00;100137.91;5030029;28;20564;-81
2021/08/27 02:55:24;;;;;;;4.38;2.95;;;;;;;12.80;100.00;100138.31;5018009;28;20445;-84
2021/08/27 02:58:11;;;;;;;3.88;2.55;;;;;;;12.82;100.00;100139.00;5013611;28;20045;-81
2021/08/27 03:00:50;;;;;;;3.70;2.17;;;;;;;12.79;100.00;100133.94;5027463;28;20200;-82
2021/08/27 03:03:24;;;;;;;7.50;2.80;;;;;;;12.75;100.00;100129.88;5030376;28;20109;-82
2021/08/27 03:05:57;;;;;;;2.22;1.88;;;;;;;12.84;100.00;100131.84;5023399;28;20416;-82
2021/08/27 03:08:26;;;;;;;6.90;2.88;;;;;;;12.89;100.00;100129.69;5026825;28;20566;-80
2021/08/27 03:11:02;;;;;;;5.10;2.22;;;;;;;12.81;100.00;100124.13;5044445;28;20099;-82
2021/08/27 03:13:34;;;;;;;;;;;;;;;12.73;100.00;100126.50;5042486;28;20049;-80
2021/08/27 03:16:03;;;;;;;6.15;2.30;;;;;;;12.84;100.00;100124.75;5029094;28;20003;-82
2021/08/27 03:18:37;;;;;;;2.38;1.80;;;;;;;12.74;100.00;100118.44;5028461;28;20512;-81
2021/08/27 03:21:12;;;;;;;1.83;1.38;;;;;;;12.73;100.00;100131.78;5011866;28;20377;-81
2021/08/27 03:23:39;;;;;;;2.13;1.40;;;;;;;12.71;100.00;100126.63;5011088;28;20114;-81
2021/08/27 03:26:09;;;;;;;5.35;1.75;;;;;;;12.71;100.00;100126.63;5024062;28;20061;-81
2021/08/27 03:28:41;;;;;;;2.67;1.90;;;;;;;12.81;100.00;100130.25;5008991;28;20151;-82
2021/08/27 03:31:09;;;;;;;3.05;2.08;;;;;;;12.83;100.00;100120.44;5009796;28;20057;-81
2021/08/27 03:33:36;;;;;;;3.58;1.77;;;;;;;12.73;100.00;100127.34;5023411;28;20728;-82
2021/08/27 03:36:04;;;;;;;2.85;1.75;;;;;;;12.82;100.00;100124.00;5018097;28;20045;-82
2021/08/27 03:38:33;;;;;;;2.55;1.40;;;;;;;12.89;100.00;100119.09;5037534;28;20060;-80
2021/08/27 03:41:01;;;;;;;2.90;1.50;;;;;;;12.92;100.00;100124.13;5025187;28;20040;-81
2021/08/27 03:43:29;;;;;;;3.17;1.10;;;;;;;12.88;100.00;100123.56;5021239;28;20120;-81
2021/08/27 03:46:00;;;;;;;1.90;1.20;;;;;;;12.86;100.00;100119.34;5027918;28;20053;-80
2021/08/27 03:48:28;;;;;;;2.47;1.23;;;;;;;12.81;100.00;100116.19;5025621;28;21380;-83
2021/08/27 03:50:56;;;;;;;1.67;1.17;;;;;;;12.72;100.00;100116.91;5026797;28;20041;-84
2021/08/27 03:53:23;;;;;;;1.90;1.08;;;;;;;12.60;100.00;100116.84;5043809;28;20140;-82
2021/08/27 03:55:51;;;;;;;3.42;1.13;;;;;;;12.67;100.00;100118.09;5021998;28;20116;-81
2021/08/27 03:58:22;;;;;;;3.85;1.20;;;;;;;12.79;100.00;100116.34;5024357;28;20053;-80
2021/08/27 04:00:50;;;;;;;3.70;1.08;;;;;;;12.77;100.00;100118.22;5023992;28;20395;-82
2021/08/27 04:03:21;;;;;;;8.63;1.92;;;;;;;12.68;100.00;100118.94;5014775;28;20135;-82
2021/08/27 04:05:59;;;;;;;1.63;1.15;;;;;;;12.71;100.00;100124.00;5025576;28;20236;-82
2021/08/27 04:08:27;;;;;;;1.58;1.05;;;;;;;12.85;100.00;100121.13;5034174;28;20136;-81
2021/08/27 04:10:54;;;;;;;2.25;1.00;;;;;;;12.66;100.00;100118.22;4993053;28;20049;-81
2021/08/27 04:13:21;;;;;;;4.78;1.20;;;;;;;12.75;100.00;100125.44;5014283;28;20110;-81
2021/08/27 04:15:48;;;;;;;2.22;1.10;;;;;;;12.69;100.00;100125.88;5026457;28;20046;-81
2021/08/27 04:18:15;;;;;;;2.63;1.30;;;;;;;12.81;100.00;100127.59;5042544;28;20059;-83
2021/08/27 04:20:43;;;;;;;1.60;1.17;;;;;;;12.74;100.00;100123.72;5007837;28;20491;-81
2021/08/27 04:23:10;;;;;;;4.53;1.30;;;;;;;12.87;100.00;100124.50;5015685;28;20473;-82
2021/08/27 04:25:37;;;;;;;2.67;1.15;;;;;;;12.86;100.00;100125.44;5009039;28;20048;-81
2021/08/27 04:28:05;;;;;;;2.08;1.48;;;;;;;12.71;100.00;100124.00;5012270;28;20051;-80
2021/08/27 04:30:33;;;;;;;2.30;1.80;;;;;;;12.74;100.00;100120.25;5025310;28;20060;-78
2021/08/27 04:33:01;;;;;;;3.05;1.80;;;;;;;12.68;100.00;100122.41;5023015;28;20053;-80
2021/08/27 04:35:29;;;;;;;2.40;1.70;;;;;;;12.80;100.00;100123.28;5024287;28;20052;-79
2021/08/27 04:37:56;;;;;;;2.10;1.70;;;;;;;12.91;100.00;100119.81;5028941;28;20140;-80
2021/08/27 04:40:24;;;;;;;3.83;1.90;;;;;;;12.96;100.00;100119.47;5043165;28;20053;-79
2021/08/27 04:42:52;;;;;;;2.95;1.75;;;;;;;12.80;100.00;100122.44;5031096;28;20059;-80
2021/08/27 04:45:19;;;;;;;4.18;2.80;;;;;;;12.55;100.00;100120.81;5007031;28;20132;-81
2021/08/27 04:47:47;;;;;;;3.28;2.47;;;;;;;12.58;100.00;100125.88;5039111;28;20723;-79
2021/08/27 04:50:14;;;;;;;3.33;2.50;;;;;;;12.55;100.00;100128.72;5030746;28;20550;-79
2021/08/27 04:52:41;;;;;;;2.88;2.10;;;;;;;12.51;100.00;100122.84;5049120;28;20116;-80
2021/08/27 04:55:09;;;;;;;5.40;2.25;;;;;;;12.53;100.00;100125.38;5030650;28;20036;-80
2021/08/27 04:57:37;;;;;;;5.22;2.65;;;;;;;12.35;100.00;100125.78;5047552;28;20115;-81
2021/08/27 05:00:08;;;;;;;4.65;2.45;;;;;;;12.25;100.00;100130.06;5048345;28;20041;-82
2021/08/27 05:02:37;;;;;;;7.57;3.33;;;;;;;12.20;100.00;100129.53;5035869;28;20484;-79
2021/08/27 05:05:05;;;;;;;2.95;1.92;;;;;;;12.05;100.00;100125.41;5018176;28;20053;-77
2021/08/27 05:07:33;;;;;;;2.60;1.60;;;;;;;12.01;100.00;100134.50;5035748;28;20747;-80
2021/08/27 05:10:01;;;;;;;4.97;1.98;;;;;;;12.09;100.00;100126.88;5028627;28;20048;-81
2021/08/27 05:12:29;;;;;;;3.50;2.45;;;;;;;11.99;100.00;100141.69;5000953;28;20056;-79
2021/08/27 05:14:59;;;;;;;12.15;8.30;;;;;;;12.06;100.00;100135.00;5035507;28;20528;-80
2021/08/27 05:17:27;;;;;;;4.22;2.53;;;;;;;12.29;100.00;100135.94;5053349;28;20080;-80
2021/08/27 05:19:55;;;;;;;4.20;3.30;;;;;;;12.32;100.00;100141.00;5011933;28;20044;-81
2021/08/27 05:22:25;;;;;;;4.18;2.88;;;;;;;12.20;100.00;100134.81;5031656;28;20056;-86
2021/08/27 05:24:56;;;;;;;4.22;3.15;;;;;;;12.29;100.00;100139.44;5049879;28;20072;-83
2021/08/27 05:27:23;;;;;;;4.07;2.90;;;;;;;12.48;100.00;100127.53;5016043;28;20664;-83
2021/08/27 05:29:51;;;;;;;3.78;2.40;;;;;;;12.55;100.00;100134.84;5027400;28;20045;-85
2021/08/27 05:32:18;;;;;;;2.78;1.83;;;;;;;12.38;100.00;100129.97;5016495;28;20103;-84
2021/08/27 05:34:48;;;;;;;4.03;2.17;;;;;;;12.44;100.00;100129.53;4996537;28;20127;-83
2021/08/27 05:37:15;;;;;;;4.60;2.20;;;;;;;12.47;100.00;100137.22;5022559;28;20103;-87
2021/08/27 05:39:42;;;;;;;3.70;1.80;;;;;;;12.45;100.00;100135.66;5030749;28;20030;-85
2021/08/27 05:42:09;;;;;;;2.17;1.63;;;;;;;12.52;100.00;100132.47;5001854;28;20653;-84
2021/08/27 05:44:37;;;;;;;2.58;1.65;;;;;;;12.66;100.00;100137.53;5035213;28;20053;-86
2021/08/27 05:47:04;;;;;;;5.50;1.95;;;;;;;12.88;100.00;100141.22;5032774;28;20128;-85
2021/08/27 05:49:33;;;;;;;2.28;2.03;;;;;;;12.99;100.00;100141.22;4997801;28;20053;-87
2021/08/27 05:52:01;;;;;;;3.10;1.60;;;;;;;13.32;100.00;100137.78;4998635;28;20087;-86
2021/08/27 05:54:28;;;;;;;1.85;1.50;;;;;;;13.69;100.00;100148.13;5023625;28;20185;-87
2021/08/27 05:56:57;;;;;;;2.72;1.30;;;;;;;13.46;100.00;100143.78;5018479;28;20068;-91
2021/08/27 05:59:24;;;;;;;7.53;4.00;;;;;;;13.22;100.00;100151.81;5019172;28;20041;-88
2021/08/27 06:01:52;;;;;;;3.00;1.30;;;;;;;13.03;100.00;100150.59;5054712;28;20071;-87
2021/08/27 06:04:19;;;;;;;2.15;1.40;;;;;;;12.72;100.00;100148.59;5046222;28;20176;-88
2021/08/27 06:06:48;;;;;;;2.65;1.58;;;;;;;12.73;100.00;100155.56;5021786;28;20072;-86
2021/08/27 06:09:16;;;;;;;1.92;1.55;;;;;;;12.78;100.00;100156.88;5021043;28;20049;-84
2021/08/27 06:11:44;;;;;;;2.90;1.40;;;;;;;12.85;100.00;100152.84;5036519;28;20045;-86
2021/08/27 06:14:11;;;;;;;3.92;1.52;;;;;;;12.75;100.00;100156.31;5000105;28;20079;-83
2021/08/27 06:16:38;;;;;;;1.90;1.42;;;;;;;12.83;100.00;100164.47;5043059;28;20063;-83
2021/08/27 06:19:07;;;;;;;2.75;1.58;;;;;;;13.12;100.00;100163.09;5034410;28;20118;-86
2021/08/27 06:21:37;;;;;;;2.42;1.25;;;;;;;13.62;100.00;100163.63;5033380;28;20049;-84
2021/08/27 06:24:05;;;;;;;3.45;1.63;;;;;;;13.61;100.00;100163.75;5036311;28;20064;-85
2021/08/27 06:26:34;;;;;;;2.47;1.50;;;;;;;15.18;100.00;100158.75;5032236;28;20053;-85
2021/08/27 06:29:03;;;;;;;2.50;1.25;;;;;;;15.42;96.70;100162.91;5026491;28;20438;-86
2021/08/27 06:34:55;;;;;;;1.92;1.50;;;;;;;18.82;78.99;100158.59;5008984;28;20048;-88
2021/08/27 06:38:21;;;;;;;1.77;0.88;;;;;;;20.19;68.80;100161.31;5019059;28;20056;-84
2021/08/27 06:40:15;;;;;;;1.83;0.98;;;;;;;21.92;60.51;100160.94;5028938;28;20339;-83
2021/08/27 06:42:42;;;;;;;1.85;0.85;;;;;;;22.82;56.56;100155.00;5015422;28;20037;-85
2021/08/27 06:45:10;;;;;;;1.25;0.70;;;;;;;23.72;53.88;100163.84;5021489;28;20076;-85
2021/08/27 06:47:37;;;;;;;5.97;0.90;;;;;;;21.86;57.04;100170.53;4998276;28;20059;-84
2021/08/27 06:50:06;;;;;;;2.70;0.52;;;;;;;21.71;60.75;100170.44;5008748;28;20140;-85
2021/08/27 06:52:34;;;;;;;7.20;1.80;;;;;;;23.53;54.43;100175.13;5020032;28;20473;-83
2021/08/27 06:55:02;;;;;;;1.13;0.80;;;;;;;25.42;48.78;100171.31;5011841;28;20053;-84
2021/08/27 06:57:29;;;;;;;4.97;1.92;;;;;;;25.66;48.89;100165.41;5012434;28;20127;-83
2021/08/27 06:59:56;;;;;;;2.35;1.02;;;;;;;24.34;51.33;100172.44;5049160;28;20131;-83
2021/08/27 07:02:24;;;;;;;2.40;0.95;;;;;;;23.46;54.59;100182.25;5024228;28;20037;-86
2021/08/27 07:04:51;;;;;;;0.50;0.40;;;;;;;21.12;59.17;100180.59;5037875;28;20052;-87
2021/08/27 07:07:18;;;;;;;1.42;0.73;;;;;;;22.32;52.95;100176.00;5032882;28;20480;-82
2021/08/27 07:09:46;;;;;;;2.50;0.65;;;;;;;23.98;50.00;100170.56;5023180;28;20543;-83
2021/08/27 07:12:13;;;;;;;1.08;0.60;;;;;;;25.94;44.08;100178.06;5007028;28;20041;-83
2021/08/27 07:14:42;;;;;;;1.33;0.57;;;;;;;24.46;45.12;100170.94;5035991;28;20541;-83
2021/08/27 07:17:10;;;;;;;1.00;0.40;;;;;;;23.94;46.72;100186.25;5023836;28;20207;-85
2021/08/27 07:19:39;;;;;;;3.83;0.65;;;;;;;26.63;41.57;100180.53;5022697;28;20539;-85
2021/08/27 07:22:06;;;;;;;0.30;0.30;;;;;;;25.51;44.85;100178.22;5029845;28;20142;-83
2021/08/27 07:24:33;;;;;;;1.13;0.40;;;;;;;27.03;41.55;100175.16;5009814;28;20732;-83
2021/08/27 07:27:01;;;;;;;3.10;0.75;;;;;;;24.98;44.37;100186.72;5030177;28;20048;-82
2021/08/27 07:29:36;;;;;;;2.20;0.80;;;;;;;22.62;50.50;100185.03;5018540;28;21288;-83
2021/08/27 07:32:06;;;;;;;2.75;0.68;;;;;;;21.12;53.86;100190.44;5029071;28;20041;-80
2021/08/27 07:34:33;;;;;;;1.10;0.70;;;;;;;19.85;61.41;100193.41;5026980;28;20088;-85
2021/08/27 07:37:00;;;;;;;1.38;0.50;;;;;;;19.20;63.36;100196.53;5023608;28;20139;-80
2021/08/27 07:39:28;;;;;;;1.25;0.60;;;;;;;20.96;58.89;100189.47;5010860;28;20052;-83
2021/08/27 07:41:55;;;;;;;5.13;1.00;;;;;;;23.30;51.10;100185.13;5028088;28;20606;-84
2021/08/27 07:44:22;;;;;;;1.30;0.70;;;;;;;21.85;53.88;100189.47;5031945;28;20079;-81
2021/08/27 07:46:49;;;;;;;1.50;0.77;;;;;;;19.41;62.57;100191.69;5027401;28;20041;-85
2021/08/27 07:49:18;;;;;;;3.72;1.23;;;;;;;18.90;60.91;100198.63;5023057;28;20480;-81
2021/08/27 07:51:47;;;;;;;1.85;0.88;;;;;;;18.11;66.20;100199.38;5030184;28;20056;-83
2021/08/27 07:54:15;;;;;;;0.85;0.40;;;;;;;17.07;72.92;100198.59;5011921;28;20051;-84
2021/08/27 07:56:44;;;;;;;0.95;0.55;;;;;;;16.61;74.53;100197.47;5020449;28;20072;-82
2021/08/27 07:59:12;;;;;;;1.10;0.55;;;;;;;16.76;73.65;100200.59;5017562;28;20150;-82
2021/08/27 08:01:39;;;;;;;1.67;0.60;;;;;;;16.76;72.54;100200.59;5016176;28;20033;-82
2021/08/27 08:04:06;;;;;;;6.55;1.27;;;;;;;16.61;76.10;100205.44;5036456;28;20475;-82
2021/08/27 08:06:38;;;;;;;1.10;0.75;;;;;;;17.98;70.21;100203.38;5001790;28;20087;-83
2021/08/27 08:09:06;;;;;;;0.52;0.50;;;;;;;22.01;55.10;100200.09;5019685;28;20678;-84
2021/08/27 08:11:34;;;;;;;1.45;0.60;;;;;;;22.78;52.87;100204.69;5030302;28;20132;-84
2021/08/27 08:14:01;;;;;;;0.75;0.45;;;;;;;22.18;50.87;100203.56;5008507;28;20052;-82
2021/08/27 08:16:29;;;;;;;2.33;0.30;;;;;;;20.19;54.91;100206.72;5030186;28;20071;-79
2021/08/27 08:18:56;;;;;;;0.45;0.32;;;;;;;19.30;57.73;100210.63;5029827;28;20086;-80
2021/08/27 08:21:24;;;;;;;1.88;0.32;;;;;;;18.40;61.76;100209.81;5027806;28;20240;-82
2021/08/27 08:23:52;;;;;;;0.88;0.50;;;;;;;18.14;64.52;100214.19;5027904;28;20084;-79
2021/08/27 08:26:20;;;;;;;2.95;0.55;;;;;;;17.12;68.10;100224.78;5030558;28;20128;-83
2021/08/27 08:28:50;;;;;;;0.90;0.60;;;;;;;17.10;70.32;100227.56;5029679;28;20060;-80
2021/08/27 08:31:20;;;;;;;3.20;0.65;;;;;;;18.40;67.64;100222.31;5013975;28;20041;-78
2021/08/27 08:33:50;;;;;;;0.75;0.30;;;;;;;20.05;57.76;100226.91;5014015;28;20045;-81
2021/08/27 08:36:18;;;;;;;0.93;0.50;;;;;;;19.87;56.73;100224.31;5047786;28;20457;-79
2021/08/27 08:38:46;;;;;;;2.08;0.68;;;;;;;19.76;55.52;100224.59;5022830;28;20518;-79
2021/08/27 08:41:17;;;;;;;0.40;0.30;;;;;;;20.57;52.03;100232.06;5012403;28;20147;-78
2021/08/27 08:43:45;;;;;;;0.73;0.50;;;;;;;19.36;55.52;100225.16;5027976;28;20131;-79
2021/08/27 08:46:13;;;;;;;2.63;0.40;;;;;;;18.97;56.76;100222.88;5014804;28;20419;-80
2021/08/27 08:48:46;;;;;;;0.85;0.50;;;;;;;19.36;58.18;100225.16;5027845;28;20499;-79
2021/08/27 08:51:14;;;;;;;1.27;0.35;;;;;;;20.23;55.67;100227.63;5048553;28;20045;-79
2021/08/27 08:53:45;;;;;;;0.77;0.20;;;;;;;19.28;55.79;100223.28;5009936;28;20372;-77
2021/08/27 08:56:13;;;;;;;2.40;0.63;;;;;;;18.25;58.42;100224.66;5047842;28;20484;-78
2021/08/27 08:58:40;;;;;;;0.55;0.30;;;;;;;18.06;59.29;100227.44;5045378;28;20052;-78
2021/08/27 09:01:12;;;;;;;1.48;0.60;;;;;;;18.32;61.35;100224.88;5014548;28;20190;-80
2021/08/27 09:03:40;;;;;;;1.60;0.55;;;;;;;17.92;64.14;100234.06;5025077;28;20072;-78
2021/08/27 09:06:08;;;;;;;0.40;0.30;;;;;;;18.18;60.83;100228.91;5029196;28;20384;-80
2021/08/27 09:08:39;;;;;;;0.75;0.30;;;;;;;18.91;59.16;100228.81;5034002;28;20061;-79
2021/08/27 09:11:21;;;;;;;0.88;0.45;;;;;;;18.53;59.11;100233.44;5031814;28;20065;-78
2021/08/27 09:13:50;;;;;;;0.63;0.63;;;;;;;18.43;56.36;100243.34;5027731;28;20049;-78
2021/08/27 09:16:18;;;;;;;1.17;0.40;;;;;;;18.75;57.24;100234.84;5034670;28;20546;-80
2021/08/27 09:18:49;;;;;;;6.22;0.40;;;;;;;18.78;58.94;100236.38;5013422;28;20143;-78
2021/08/27 09:21:29;;;;;;;3.83;0.57;;;;;;;18.31;59.67;100248.03;5021134;28;20076;-78
2021/08/27 09:24:19;;;;;;;2.20;0.60;;;;;;;17.58;60.80;100242.59;5021431;28;20140;-78
2021/08/27 09:26:52;;;;;;;1.02;0.38;;;;;;;17.45;62.44;100253.53;5035338;28;20391;-79
2021/08/27 09:29:42;;;;;;;0.50;0.30;;;;;;;17.39;61.51;100254.13;5031089;28;20643;-78
2021/08/27 09:32:18;;;;;;;1.17;0.40;;;;;;;17.34;61.29;100248.41;5025065;28;20073;-82
2021/08/27 09:34:45;;;;;;;0.88;0.40;;;;;;;17.35;61.44;100239.44;5041476;28;20048;-79
2021/08/27 09:37:13;;;;;;;0.75;0.40;;;;;;;17.57;61.81;100242.75;5049265;28;20052;-80
2021/08/27 09:39:40;;;;;;;0.60;0.45;;;;;;;17.71;62.56;100250.25;5007686;28;20040;-80
2021/08/27 09:42:08;;;;;;;1.30;0.73;;;;;;;17.63;64.60;100248.31;5048849;28;20081;-81
2021/08/27 09:44:35;;;;;;;4.13;0.82;;;;;;;17.74;64.06;100251.81;5055778;28;20095;-88
2021/08/27 09:47:07;;;;;;;7.50;0.70;;;;;;;18.23;63.07;100251.44;5026370;28;20049;-87
2021/08/27 09:49:37;;;;;;;2.05;0.50;;;;;;;18.43;61.60;100254.84;5037950;28;20075;-86
2021/08/27 09:52:09;;;;;;;1.63;0.50;;;;;;;17.78;62.80;100253.19;5044213;28;20100;-89
2021/08/27 09:54:40;;;;;;;3.17;0.68;;;;;;;18.12;61.99;100256.13;5039706;28;20131;-90
2021/08/27 09:57:10;;;;;;;0.57;0.30;;;;;;;18.77;59.63;100258.69;5031327;28;20138;-88
2021/08/27 09:59:47;;;;;;;4.45;0.77;;;;;;;17.77;61.66;100254.19;5019157;28;20044;-86
2021/08/27 10:02:16;;;;;;;0.40;0.40;;;;;;;18.23;61.78;100261.25;5017043;28;20114;-87
2021/08/27 10:04:50;;;;;;;0.65;0.55;;;;;;;18.23;61.58;100258.59;5024803;28;20064;-87
2021/08/27 10:07:29;;;;;;;1.80;0.63;;;;;;;18.28;61.87;100267.00;5037794;28;20136;-90
2021/08/27 10:10:00;;;;;;;0.75;0.30;;;;;;;18.29;62.77;100263.34;5003853;28;20037;-88
2021/08/27 10:12:29;;;;;;;1.10;0.50;;;;;;;18.23;62.39;100266.59;5037112;28;20357;-86
2021/08/27 10:14:58;;;;;;;4.00;0.57;;;;;;;17.78;63.29;100263.84;5018411;28;20083;-86
2021/08/27 10:17:27;;;;;;;2.35;0.40;;;;;;;18.21;62.56;100271.22;5028790;28;20048;-86
2021/08/27 10:19:55;;;;;;;0.93;0.40;;;;;;;17.80;62.42;100281.34;5033992;28;20037;-87
2021/08/27 10:22:23;;;;;;;1.13;0.40;;;;;;;16.69;67.35;100287.13;5007277;28;20916;-89
2021/08/27 10:24:50;;;;;;;2.85;0.50;;;;;;;16.37;72.70;100284.69;5049340;28;20516;-85
2021/08/27 10:27:18;;;;;;;1.77;0.70;;;;;;;15.29;82.35;100292.25;5020928;28;20468;-82
2021/08/27 10:29:49;;;;;;;1.58;0.70;;;;;;;15.02;88.16;100287.44;5029457;28;20051;-83
2021/08/27 10:32:38;;;;;;;1.15;0.88;;;;;;;14.37;93.40;100289.16;5056429;28;20032;-84
2021/08/27 10:35:06;;;;;;;2.28;1.60;;;;;;;14.27;95.07;100291.69;5048432;28;20052;-83
2021/08/27 10:37:48;;;;;;;2.72;1.70;;;;;;;14.16;98.14;100297.00;5012369;28;20408;-84
2021/08/27 10:40:21;;;;;;;2.00;1.42;;;;;;;14.07;97.15;100295.91;5047952;28;20064;-82
2021/08/27 10:42:51;;;;;;;2.53;1.95;;;;;;;14.30;98.73;100296.75;5033066;28;20044;-83
2021/08/27 10:45:40;;;;;;;3.75;1.50;;;;;;;14.52;98.39;100298.53;5050515;28;20160;-84
2021/08/27 10:48:28;;;;;;;2.80;1.45;;;;;;;14.93;94.88;100294.31;5048347;28;20041;-88
2021/08/27 10:50:57;;;;;;;2.67;1.70;;;;;;;15.12;94.15;100289.19;5014794;28;20040;-84
2021/08/27 10:53:32;;;;;;;2.90;2.10;;;;;;;15.41;92.69;100294.72;5034681;28;20032;-86
2021/08/27 10:56:33;;;;;;;2.22;1.70;;;;;;;15.22;93.55;100294.59;5016496;28;20057;-86
2021/08/27 10:59:06;;;;;;;3.75;2.03;;;;;;;16.04;90.73;100301.78;5047092;28;20048;-87
2021/08/27 11:01:36;;;;;;;2.70;2.00;;;;;;;16.02;91.42;100301.91;5000169;28;20095;-85
2021/08/27 11:04:04;;;;;;;4.78;1.88;;;;;;;15.85;91.82;100307.81;5018197;28;20168;-86
2021/08/27 11:06:32;;;;;;;4.18;1.83;;;;;;;15.93;90.60;100305.34;5056652;28;20124;-84
2021/08/27 11:09:15;;;;;;;2.72;2.08;;;;;;;16.09;91.20;100303.06;5012071;28;20099;-87
2021/08/27 11:11:42;;;;;;;2.40;1.52;;;;;;;16.29;87.45;100300.47;5027825;28;20144;-85
2021/08/27 11:14:17;;;;;;;4.28;2.40;;;;;;;16.66;85.81;100298.91;5013273;28;20067;-86
2021/08/27 11:16:54;;;;;;;3.67;1.73;;;;;;;16.90;80.30;100295.03;5029248;28;20168;-84
2021/08/27 11:19:54;;;;;;;2.88;1.52;;;;;;;16.55;82.90;100301.66;5012761;28;20399;-86
2021/08/27 11:22:23;;;;;;;2.22;1.40;;;;;;;16.36;81.44;100313.09;5026569;28;20071;-83
2021/08/27 11:25:03;;;;;;;2.33;1.70;;;;;;;16.23;81.59;100314.31;5028376;28;20055;-86
2021/08/27 11:27:31;;;;;;;1.73;1.60;;;;;;;16.45;80.19;100304.31;5027070;28;20507;-81
2021/08/27 11:30:27;;;;;;;2.40;1.60;;;;;;;16.45;82.96;100306.97;5040806;28;20549;-87
2021/08/27 11:32:58;;;;;;;1.52;1.42;;;;;;;16.93;80.64;100295.59;5026572;28;20044;-86
2021/08/27 11:35:27;;;;;;;1.70;1.30;;;;;;;16.91;80.46;100294.03;5056950;28;20053;-86
2021/08/27 11:37:58;;;;;;;1.13;0.80;;;;;;;17.33;74.25;100288.44;5028958;28;20112;-87
2021/08/27 11:40:26;;;;;;;1.05;0.80;;;;;;;17.43;73.11;100286.63;5023829;28;20033;-88